Time;durP1;ratioP1;P1;durP2;ratioP2;P2;SDS_P1;SDS_P2;PMS_P1;PMS_P2;Temp;Humidity;BMP_temperature;BMP_pressure;BME280_temperature;BME280_humidity;BME280_pressure;Samples;Min_cycle;Max_cycle;Signal;HPM_P1;HPM_P2
2024/01/12 00:02:11;;;;;;;42.60;25.70;;;-5.30;86.70;;;-6.70;95.00;99160.13;5032951;28;20466;-69
2024/01/12 00:04:38;;;;;;;41.47;25.80;;;-5.30;86.10;;;-6.58;94.54;99153.41;5047649;28;20538;-72
2024/01/12 00:07:06;;;;;;;38.50;23.43;;;-5.30;86.70;;;-6.59;94.37;99156.09;5053648;28;20865;-71
2024/01/12 00:09:35;;;;;;;43.80;25.70;;;-5.30;86.70;;;-6.65;94.42;99157.25;5051342;28;21216;-72
2024/01/12 00:12:05;;;;;;;45.57;24.90;;;-5.30;86.20;;;-6.79;95.10;99149.22;5076531;28;20566;-71
2024/01/12 00:14:33;;;;;;;37.70;23.03;;;-5.40;85.70;;;-6.84;95.53;99158.19;5060408;28;20466;-70
2024/01/12 00:17:01;;;;;;;42.97;22.77;;;-5.40;86.10;;;-6.90;96.12;99163.78;5051817;28;20459;-72
2024/01/12 00:19:29;;;;;;;39.43;22.77;;;-5.50;86.30;;;-6.92;95.92;99165.59;5047481;28;20484;-71
2024/01/12 00:21:56;;;;;;;42.90;23.47;;;-5.50;86.70;;;-7.47;96.38;99078.09;5048475;28;20473;-73
2024/01/12 00:24:24;;;;;;;36.37;21.97;;;-5.60;86.90;;;-7.01;96.31;99156.41;5065756;28;20466;-71
2024/01/12 00:26:52;;;;;;;35.97;21.20;;;-5.60;87.30;;;-7.04;96.73;99166.22;5054914;28;20979;-69
2024/01/12 00:29:22;;;;;;;32.10;21.93;;;-5.60;87.60;;;-7.59;96.74;99055.06;5047040;28;20979;-69
2024/01/12 00:31:50;;;;;;;38.20;22.17;;;-5.50;88.00;;;-7.02;97.13;99156.50;5050211;28;20448;-72
2024/01/12 00:34:17;;;;;;;34.17;21.37;;;-5.50;88.00;;;-7.05;96.88;99161.88;5042528;28;20448;-70
2024/01/12 00:36:46;;;;;;;33.90;20.73;;;-5.50;87.90;;;-7.05;96.66;99165.38;5044084;28;20464;-72
2024/01/12 00:39:14;;;;;;;35.67;21.37;;;-5.60;87.80;;;-6.94;96.76;99162.22;5046177;28;20728;-70
2024/01/12 00:41:42;;;;;;;37.67;21.40;;;-5.60;88.50;;;-6.89;95.69;99154.97;5052385;28;20453;-70
2024/01/12 00:44:11;;;;;;;38.17;22.00;;;-5.60;88.70;;;-6.85;95.96;99161.75;5061838;28;20468;-71
2024/01/12 00:46:41;;;;;;;33.23;20.47;;;-5.60;88.90;;;-6.61;95.33;99163.22;5047603;28;20469;-72
2024/01/12 00:49:08;;;;;;;30.07;19.33;;;-5.40;89.90;;;-6.55;94.82;99163.75;5042428;28;20489;-70
2024/01/12 00:51:36;;;;;;;30.60;20.97;;;-5.30;89.30;;;-6.54;94.96;99154.06;5059174;28;20696;-71
2024/01/12 00:54:07;;;;;;;34.63;20.17;;;-5.20;88.80;;;-6.63;95.37;99150.16;5048478;28;20472;-69
2024/01/12 00:56:35;;;;;;;32.03;19.40;;;-5.20;88.00;;;-6.53;95.62;99154.94;5033631;28;20452;-70
2024/01/12 00:59:03;;;;;;;33.20;20.10;;;-5.20;88.30;;;-6.45;95.89;99164.13;5058143;28;20459;-70
2024/01/12 01:01:30;;;;;;;31.70;21.37;;;-5.20;88.60;;;-6.37;95.23;99161.09;5050361;28;21010;-70
2024/01/12 01:04:01;;;;;;;34.47;20.77;;;-5.00;89.20;;;-6.34;95.58;99144.31;5049816;28;21184;-71
2024/01/12 01:06:29;;;;;;;35.23;22.30;;;-4.90;89.20;;;-5.90;94.38;99156.00;5057301;28;20455;-71
2024/01/12 01:08:56;;;;;;;36.63;19.80;;;-4.70;90.00;;;-5.76;93.59;99155.25;5048820;28;20495;-69
2024/01/12 01:11:23;;;;;;;32.07;19.60;;;-4.60;89.00;;;-5.58;91.56;99161.28;5050064;28;20485;-72
2024/01/12 01:13:50;;;;;;;34.17;21.10;;;-4.30;87.50;;;-5.46;91.43;99157.97;5056185;28;20447;-70
2024/01/12 01:16:18;;;;;;;33.90;20.10;;;-4.20;85.90;;;-5.38;90.27;99169.88;5058291;28;20514;-70
2024/01/12 01:18:45;;;;;;;28.80;19.03;;;-4.10;83.80;;;-5.46;88.58;99113.19;5033946;28;20477;-70
2024/01/12 01:21:14;;;;;;;29.87;19.70;;;-3.90;81.90;;;-5.09;88.01;99176.16;5049953;28;20453;-68
2024/01/12 01:23:44;;;;;;;31.03;18.83;;;-3.80;80.20;;;-5.21;87.32;99164.53;5050833;28;20463;-70
2024/01/12 01:26:11;;;;;;;32.90;20.53;;;-3.80;79.20;;;-5.02;87.02;99163.47;5072094;28;20482;-69
2024/01/12 01:28:39;;;;;;;35.37;21.37;;;-3.70;79.10;;;-4.93;86.61;99170.81;5071203;28;20481;-70
2024/01/12 01:31:07;;;;;;;31.63;19.87;;;-3.70;78.40;;;-4.70;86.31;99171.28;5038805;28;20451;-70
2024/01/12 01:33:34;;;;;;;32.97;21.47;;;-3.50;78.30;;;-4.81;85.79;99161.38;5061848;28;20506;-69
2024/01/12 01:36:01;;;;;;;29.50;19.63;;;-3.50;77.60;;;-4.59;85.54;99174.16;5050663;28;21035;-70
2024/01/12 01:38:30;;;;;;;36.27;19.90;;;-3.40;77.40;;;-4.60;84.93;99171.59;5053982;28;20531;-71
2024/01/12 01:41:01;;;;;;;27.60;17.53;;;-3.40;77.10;;;-4.61;84.52;99176.03;5053826;28;20464;-70
2024/01/12 01:43:28;;;;;;;32.90;19.07;;;-3.30;76.60;;;-5.06;84.81;99080.25;5048964;28;20498;-70
2024/01/12 01:45:56;;;;;;;27.10;17.97;;;-3.30;76.80;;;-4.50;84.46;99156.06;5046534;28;20523;-70
2024/01/12 01:48:25;;;;;;;26.60;19.57;;;-3.20;76.60;;;-4.49;84.26;99173.59;5047814;28;20886;-70
2024/01/12 01:50:52;;;;;;;30.50;19.20;;;-3.10;76.30;;;-4.53;84.73;99177.34;5048897;28;20461;-70
2024/01/12 01:53:21;;;;;;;27.73;17.93;;;-3.10;76.10;;;-4.43;84.88;99178.53;5051243;28;20950;-70
2024/01/12 01:55:50;;;;;;;28.20;18.03;;;-3.10;76.40;;;-4.24;84.25;99177.41;5047612;28;20462;-69
2024/01/12 01:58:19;;;;;;;29.03;16.57;;;-3.00;76.50;;;-4.33;84.07;99166.44;5052660;28;20461;-70
2024/01/12 02:00:47;;;;;;;30.43;18.90;;;-2.90;76.10;;;-4.37;84.23;99188.69;5062681;28;20469;-70
2024/01/12 02:03:17;;;;;;;29.03;18.70;;;-3.00;75.90;;;-4.14;84.00;99186.47;5050018;28;20450;-70
2024/01/12 02:05:48;;;;;;;27.80;17.73;;;-2.90;76.30;;;-4.23;84.10;99179.09;5058437;28;20956;-72
2024/01/12 02:08:15;;;;;;;27.00;16.73;;;-3.00;76.20;;;-4.17;85.05;99171.66;5033892;28;20466;-71
2024/01/12 02:10:43;;;;;;;28.37;17.17;;;-2.90;76.50;;;-4.03;83.77;99175.25;5057910;28;20463;-72
2024/01/12 02:13:15;;;;;;;32.20;18.90;;;-2.80;76.40;;;-4.07;84.20;99182.50;5062360;28;20453;-69
2024/01/12 02:15:42;;;;;;;30.90;17.07;;;-2.80;76.40;;;-4.34;84.56;99177.94;5057488;28;20464;-70
2024/01/12 02:18:10;;;;;;;26.20;18.43;;;-2.80;76.00;;;-3.95;84.32;99188.81;5064222;28;20443;-71
2024/01/12 02:20:38;;;;;;;26.57;18.30;;;-2.70;76.50;;;-3.86;83.08;99182.16;5052626;28;20464;-71
2024/01/12 02:23:07;;;;;;;21.67;15.27;;;-2.60;76.40;;;-3.92;83.52;99190.44;5050490;28;20485;-71
2024/01/12 02:25:34;;;;;;;24.10;16.60;;;-2.60;76.00;;;-4.03;83.98;99186.66;5052567;28;20454;-71
2024/01/12 02:28:04;;;;;;;25.63;16.40;;;-2.60;76.00;;;-3.75;83.31;99194.69;5048882;28;20460;-72
2024/01/12 02:30:32;;;;;;;24.27;16.70;;;-2.50;76.10;;;-3.75;83.60;99190.25;5047250;28;21022;-69
2024/01/12 02:33:08;;;;;;;25.33;16.30;;;-2.50;76.00;;;-3.83;83.75;99195.16;5059113;28;20544;-71
2024/01/12 02:35:37;;;;;;;29.00;17.70;;;-2.50;76.00;;;-3.94;84.47;99200.25;5051954;28;20453;-75
2024/01/12 02:38:05;;;;;;;26.47;15.93;;;-2.50;76.00;;;-3.84;84.99;99186.38;5052033;28;20460;-80
2024/01/12 02:40:33;;;;;;;23.23;15.53;;;-2.50;76.40;;;-3.62;84.04;99189.47;5045823;28;20642;-71
2024/01/12 02:43:03;;;;;;;21.80;15.87;;;-2.40;76.60;;;-3.40;83.49;99185.50;5051095;28;20470;-69
2024/01/12 02:45:31;;;;;;;23.10;15.20;;;-2.30;76.80;;;-3.56;83.69;99187.31;5066097;28;20454;-70
2024/01/12 02:47:58;;;;;;;21.40;15.57;;;-2.30;76.10;;;-3.54;84.48;99181.94;5058044;28;20549;-71
2024/01/12 02:50:28;;;;;;;26.73;16.00;;;-2.30;76.30;;;-3.96;84.04;99112.34;5050321;28;20473;-69
2024/01/12 02:52:55;;;;;;;23.63;15.30;;;-2.30;76.60;;;-3.69;84.49;99186.38;5056184;28;20447;-70
2024/01/12 02:55:25;;;;;;;27.77;17.50;;;-2.30;76.40;;;-3.70;84.99;99180.25;5053689;28;20459;-70
2024/01/12 02:57:54;;;;;;;25.37;16.83;;;-2.40;76.80;;;-3.63;84.67;99182.50;5047486;28;20520;-70
2024/01/12 03:00:21;;;;;;;24.90;16.27;;;-2.40;76.60;;;-3.65;84.25;99179.13;5048313;28;20845;-71
2024/01/12 03:02:53;;;;;;;24.30;16.40;;;-2.40;76.60;;;-3.61;83.87;99185.88;5038977;28;21260;-71
2024/01/12 03:05:20;;;;;;;27.07;17.33;;;-2.30;76.20;;;-3.37;82.79;99187.94;5049653;28;20541;-71
2024/01/12 03:07:48;;;;;;;30.73;16.80;;;-2.20;76.30;;;-3.50;82.23;99183.44;5054465;28;21183;-69
2024/01/12 03:10:17;;;;;;;26.60;15.57;;;-2.20;75.80;;;-3.51;82.98;99186.16;5036356;28;20480;-69
2024/01/12 03:12:45;;;;;;;26.07;16.67;;;-2.30;75.90;;;-3.51;82.30;99170.31;5059601;28;20503;-70
2024/01/12 03:15:13;;;;;;;23.80;16.07;;;-2.20;75.80;;;-3.59;83.40;99174.28;5044184;28;20803;-70
2024/01/12 03:17:41;;;;;;;28.77;16.60;;;-2.30;75.60;;;-3.53;82.22;99186.28;5043804;28;20480;-70
2024/01/12 03:20:10;;;;;;;26.60;16.60;;;-2.20;75.50;;;-3.47;83.12;99182.41;5059880;28;20535;-70
2024/01/12 03:22:38;;;;;;;23.30;16.97;;;-2.30;75.80;;;-3.82;83.91;99188.94;5062699;28;20509;-70
2024/01/12 03:25:06;;;;;;;28.60;17.47;;;-2.40;75.60;;;-3.88;83.97;99195.44;5046319;28;20460;-72
2024/01/12 03:27:34;;;;;;;24.50;16.83;;;-2.40;75.80;;;-3.95;84.93;99196.75;5059641;28;20800;-72
2024/01/12 03:30:01;;;;;;;30.77;17.97;;;-2.50;75.80;;;-3.82;85.21;99199.50;5057522;28;20573;-70
2024/01/12 03:32:33;;;;;;;26.70;18.03;;;-2.50;76.60;;;-3.85;84.33;99202.34;5051206;28;20820;-70
2024/01/12 03:35:00;;;;;;;29.00;17.13;;;-2.50;76.20;;;-3.66;84.22;99195.91;5056321;28;20482;-70
2024/01/12 03:37:39;;;;;;;29.07;17.67;;;-2.50;76.20;;;-3.73;84.30;99206.84;5050533;28;20455;-68
2024/01/12 03:40:09;;;;;;;35.63;18.50;;;-2.40;76.30;;;-3.74;85.11;99213.06;5049858;28;20458;-71
2024/01/12 03:42:40;;;;;;;23.80;17.17;;;-2.40;76.50;;;-3.55;84.77;99201.38;5051141;28;20623;-71
2024/01/12 03:45:09;;;;;;;29.77;18.30;;;-2.30;76.80;;;-3.86;84.96;99214.69;5048387;28;20469;-71
2024/01/12 03:47:38;;;;;;;27.17;17.40;;;-2.40;76.20;;;-3.84;85.42;99212.78;5046446;28;20637;-72
2024/01/12 03:50:09;;;;;;;26.10;17.70;;;-2.50;76.80;;;-3.66;85.31;99211.75;5061904;28;20474;-71
2024/01/12 03:52:36;;;;;;;28.00;18.80;;;-2.40;77.00;;;-4.07;86.83;99205.44;5047723;28;20464;-72
2024/01/12 03:55:05;;;;;;;28.40;18.10;;;-2.60;76.70;;;-4.03;86.90;99196.38;5053043;28;20967;-71
2024/01/12 03:57:32;;;;;;;31.10;18.90;;;-2.60;77.20;;;-4.57;87.42;99130.06;5045663;28;20879;-69
2024/01/12 04:00:02;;;;;;;28.40;17.80;;;-2.70;77.60;;;-4.08;87.92;99204.56;5049325;28;20460;-71
2024/01/12 04:02:29;;;;;;;29.53;18.83;;;-2.70;77.80;;;-4.02;88.06;99209.50;5040792;28;20810;-71
2024/01/12 04:04:58;;;;;;;25.70;18.80;;;-2.60;78.00;;;-3.73;87.31;99209.47;5035227;28;20459;-71
2024/01/12 04:07:26;;;;;;;29.40;17.50;;;-2.50;78.40;;;-3.64;87.26;99209.88;5049949;28;20932;-71
2024/01/12 04:09:54;;;;;;;26.23;18.47;;;-2.50;78.30;;;-3.60;86.76;99209.59;5051044;28;20632;-70
2024/01/12 04:12:21;;;;;;;27.70;18.80;;;-2.30;78.30;;;-3.54;86.38;99205.72;5062934;28;20949;-71
2024/01/12 04:14:48;;;;;;;27.67;17.67;;;-2.20;78.10;;;-3.58;87.23;99202.41;5052355;28;20531;-71
2024/01/12 04:17:17;;;;;;;25.70;18.53;;;-2.30;78.10;;;-3.56;87.34;99197.03;5048840;28;20450;-71
2024/01/12 04:19:44;;;;;;;26.13;17.30;;;-2.30;78.30;;;-3.66;87.04;99198.56;5046939;28;20548;-70
2024/01/12 04:22:14;;;;;;;26.37;17.83;;;-2.30;78.10;;;-3.53;87.71;99188.06;5079006;28;20460;-71
2024/01/12 04:24:42;;;;;;;29.03;17.43;;;-2.30;78.80;;;-3.33;86.28;99178.88;5046357;28;20513;-72
2024/01/12 04:27:10;;;;;;;26.80;17.80;;;-2.20;78.70;;;-3.57;87.50;99187.38;5059874;28;20456;-72
2024/01/12 04:29:39;;;;;;;29.37;16.77;;;-2.20;78.40;;;-3.53;88.20;99188.91;5052067;28;21384;-71
2024/01/12 04:32:06;;;;;;;24.60;17.17;;;-2.20;78.60;;;-3.44;87.63;99195.41;5041121;28;20451;-71
2024/01/12 04:34:36;;;;;;;26.37;15.93;;;-2.20;78.80;;;-3.39;87.33;99195.13;5053971;28;20467;-71
2024/01/12 04:37:05;;;;;;;25.93;15.27;;;-2.10;78.60;;;-3.52;87.69;99203.81;5050183;28;20939;-71
2024/01/12 04:39:34;;;;;;;28.10;16.87;;;-2.20;78.40;;;-3.45;87.70;99180.50;5067746;28;20446;-71
2024/01/12 04:42:04;;;;;;;27.57;17.77;;;-2.10;78.90;;;-3.18;86.20;99187.63;5053844;28;20589;-70
2024/01/12 04:44:31;;;;;;;27.20;17.70;;;-2.00;79.00;;;-3.24;86.03;99186.22;5054423;28;20566;-70
2024/01/12 04:47:00;;;;;;;22.80;15.83;;;-2.00;78.60;;;-3.24;86.63;99194.16;5063529;28;20820;-70
2024/01/12 04:49:28;;;;;;;24.07;16.60;;;-1.90;78.50;;;-3.33;86.87;99200.00;5048969;28;20558;-71
2024/01/12 04:51:55;;;;;;;24.80;16.47;;;-2.00;78.30;;;-3.53;87.03;99175.69;5033481;28;20455;-71
2024/01/12 04:54:22;;;;;;;29.33;20.43;;;-2.00;78.30;;;-3.37;87.31;99198.50;5029734;28;20463;-71
2024/01/12 04:56:51;;;;;;;29.47;17.07;;;-2.00;78.70;;;-3.32;86.85;99188.47;5054442;28;20809;-70
2024/01/12 04:59:18;;;;;;;24.33;16.90;;;-2.00;78.80;;;-3.31;87.34;99187.53;5039610;28;20461;-70
2024/01/12 05:01:46;;;;;;;22.63;14.80;;;-2.00;78.40;;;-3.48;88.43;99178.88;5045148;28;20816;-71
2024/01/12 05:04:15;;;;;;;25.50;14.77;;;-2.10;78.60;;;-3.17;88.47;99179.56;5071124;28;20521;-71
2024/01/12 05:06:44;;;;;;;22.47;15.57;;;-2.00;79.80;;;-3.29;88.44;99164.50;5044871;28;20451;-70
2024/01/12 05:09:11;;;;;;;23.57;15.67;;;-2.00;79.50;;;-3.02;87.66;99171.59;5062192;28;20544;-70
2024/01/12 05:11:39;;;;;;;21.80;15.43;;;-1.90;79.80;;;-3.09;87.84;99173.78;5047634;28;20465;-73
2024/01/12 05:14:09;;;;;;;20.70;15.23;;;-1.90;79.50;;;-2.92;86.87;99170.03;5049971;28;20467;-72
2024/01/12 05:16:38;;;;;;;26.57;15.20;;;-1.80;79.70;;;-2.77;85.86;99177.91;5045491;28;20464;-70
2024/01/12 05:19:06;;;;;;;22.70;15.60;;;-1.70;79.30;;;-2.66;85.20;99178.03;5057995;28;20523;-71
2024/01/12 05:21:33;;;;;;;29.40;17.00;;;-1.60;78.90;;;-2.66;85.40;99180.66;5067371;28;20937;-72
2024/01/12 05:24:00;;;;;;;25.23;15.83;;;-1.50;78.50;;;-2.66;85.06;99183.31;5060843;28;20455;-69
2024/01/12 05:26:30;;;;;;;23.40;14.43;;;-1.50;78.30;;;-2.72;85.31;99173.16;5050465;28;20457;-69
2024/01/12 05:28:58;;;;;;;22.93;14.30;;;-1.50;78.30;;;-2.93;86.70;99181.56;5056324;28;20468;-70
2024/01/12 05:31:29;;;;;;;17.07;13.67;;;-1.60;78.30;;;-3.23;87.69;99182.63;5053912;28;20491;-71
2024/01/12 05:33:58;;;;;;;22.70;13.77;;;-1.80;78.40;;;-3.36;89.10;99179.06;5056104;28;20512;-69
2024/01/12 05:36:28;;;;;;;22.30;15.13;;;-1.90;79.00;;;-3.10;88.92;99171.25;5041805;28;20452;-70
2024/01/12 05:38:55;;;;;;;22.83;14.97;;;-1.80;80.00;;;-2.83;87.82;99184.47;5038579;28;20963;-72
2024/01/12 05:41:22;;;;;;;21.20;14.57;;;-1.70;79.70;;;-2.74;87.01;99191.75;5048488;28;20546;-71
2024/01/12 05:43:50;;;;;;;21.60;15.23;;;-1.60;79.80;;;-3.33;86.64;99118.94;5047648;28;20492;-71
2024/01/12 05:46:19;;;;;;;18.40;11.73;;;-1.60;79.50;;;-2.74;86.86;99201.53;5032208;28;20497;-71
2024/01/12 05:48:48;;;;;;;19.70;13.17;;;-1.50;79.20;;;-2.97;87.77;99200.38;5053460;28;20444;-70
2024/01/12 05:51:17;;;;;;;18.27;11.40;;;-1.60;78.80;;;-2.82;87.63;99203.81;5045237;28;20481;-73
2024/01/12 05:53:45;;;;;;;17.90;13.53;;;-1.60;79.90;;;-2.93;88.33;99196.59;5040225;28;20517;-72
2024/01/12 05:56:12;;;;;;;18.00;13.17;;;-1.60;79.90;;;-2.98;89.65;99188.94;5042020;28;20516;-71
2024/01/12 05:58:39;;;;;;;14.90;10.17;;;-1.70;80.10;;;-2.71;88.66;99188.06;5066260;28;20456;-74
2024/01/12 06:01:06;;;;;;;17.00;12.30;;;-1.50;80.60;;;-2.88;89.38;99187.41;5037017;28;20470;-72
2024/01/12 06:03:35;;;;;;;15.90;11.53;;;-1.50;80.40;;;-2.96;89.89;99187.03;5062095;28;20520;-73
2024/01/12 06:06:04;;;;;;;14.27;9.83;;;-1.50;80.70;;;-2.97;90.24;99182.69;5057330;28;20463;-72
2024/01/12 06:08:31;;;;;;;17.43;11.17;;;-1.60;80.90;;;-2.95;90.05;99185.25;5039370;28;20944;-72
2024/01/12 06:11:00;;;;;;;19.07;13.03;;;-1.50;81.00;;;-3.08;90.30;99178.13;5048122;28;20483;-75
2024/01/12 06:13:27;;;;;;;20.20;12.43;;;-1.60;81.00;;;-2.86;90.04;99188.16;5044671;28;20545;-73
2024/01/12 06:15:54;;;;;;;15.83;11.33;;;-1.50;81.20;;;-2.93;90.43;99183.34;5041676;28;20457;-71
2024/01/12 06:18:22;;;;;;;15.93;10.50;;;-1.50;81.00;;;-2.77;89.47;99191.97;5041667;28;20439;-73
2024/01/12 06:20:49;;;;;;;17.87;10.10;;;-1.50;80.90;;;-2.84;89.68;99198.63;5057054;28;20509;-73
2024/01/12 06:23:18;;;;;;;15.53;11.10;;;-1.50;80.50;;;-2.83;88.94;99181.81;5061412;28;20458;-73
2024/01/12 06:25:46;;;;;;;13.47;8.93;;;-1.50;80.60;;;-2.93;89.61;99192.16;5050286;28;20464;-73
2024/01/12 06:28:14;;;;;;;14.63;9.50;;;-1.60;80.60;;;-2.93;89.64;99181.56;5041720;28;20941;-72
2024/01/12 06:30:43;;;;;;;15.90;10.27;;;-1.60;80.80;;;-2.89;90.84;99198.94;5039556;28;20475;-80
2024/01/12 06:33:14;;;;;;;14.20;10.23;;;-1.50;82.30;;;-2.63;89.91;99198.16;5052520;28;20447;-72
2024/01/12 06:35:41;;;;;;;15.20;9.97;;;-1.50;82.30;;;-2.67;88.70;99208.09;5062075;28;21005;-74
2024/01/12 06:38:10;;;;;;;16.60;10.63;;;-1.40;81.10;;;-2.94;89.88;99200.19;5054243;28;20465;-74
2024/01/12 06:40:38;;;;;;;13.37;9.27;;;-1.50;80.90;;;-2.77;89.75;99201.72;5044081;28;20590;-75
2024/01/12 06:43:05;;;;;;;14.40;10.50;;;-1.50;81.00;;;-2.77;89.36;99202.56;5057257;28;20464;-75
2024/01/12 06:45:33;;;;;;;13.37;10.07;;;-1.50;80.80;;;-2.89;88.95;99206.88;5055717;28;20705;-73
2024/01/12 06:48:00;;;;;;;13.00;8.87;;;-1.50;80.50;;;-3.11;90.77;99218.00;5052143;28;20532;-73
2024/01/12 06:50:30;;;;;;;12.23;8.80;;;-1.60;80.80;;;-3.19;91.02;99215.84;5041061;28;20486;-71
2024/01/12 06:52:57;;;;;;;12.47;9.90;;;-1.70;81.00;;;-3.04;91.18;99210.50;5043788;28;20594;-73
2024/01/12 06:55:24;;;;;;;12.80;8.83;;;-1.70;81.60;;;-2.71;89.99;99217.19;5050725;28;20468;-73
2024/01/12 06:57:54;;;;;;;14.10;9.67;;;-1.60;82.00;;;-2.71;89.03;99214.53;5059846;28;20546;-73
2024/01/12 07:00:21;;;;;;;12.20;9.30;;;-1.50;81.50;;;-2.75;89.16;99210.41;5045868;28;20538;-68
2024/01/12 07:02:48;;;;;;;13.10;9.63;;;-1.40;81.30;;;-2.80;89.35;99228.38;5045175;28;20467;-69
2024/01/12 07:05:15;;;;;;;18.63;10.87;;;-1.50;80.40;;;-2.93;89.06;99228.31;5045931;28;20525;-69
2024/01/12 07:07:43;;;;;;;14.30;10.53;;;-1.50;80.20;;;-2.54;89.06;99224.03;5036310;28;21237;-67
2024/01/12 07:10:12;;;;;;;13.63;10.23;;;-1.40;81.00;;;-2.48;88.81;99225.41;5035442;28;20541;-68
2024/01/12 07:12:40;;;;;;;14.83;9.63;;;-1.20;80.90;;;-2.67;88.59;99226.59;5050981;28;20542;-69
2024/01/12 07:15:15;;;;;;;13.90;9.60;;;-1.30;80.10;;;-2.69;88.68;99231.16;5041407;28;20462;-70
2024/01/12 07:17:43;;;;;;;14.40;9.80;;;-1.40;80.00;;;-2.75;88.63;99236.88;5035043;28;21113;-69
2024/01/12 07:20:14;;;;;;;14.87;9.70;;;-1.40;80.00;;;-2.71;88.87;99222.47;5042480;28;20528;-70
2024/01/12 07:22:42;;;;;;;13.23;10.53;;;-1.40;80.40;;;-2.66;88.84;99238.06;5046928;28;20458;-69
2024/01/12 07:25:10;;;;;;;19.00;11.23;;;-1.40;80.00;;;-2.59;87.98;99234.91;5051046;28;20523;-69
2024/01/12 07:27:37;;;;;;;17.50;11.13;;;-1.40;80.20;;;-2.61;87.13;99238.59;5048576;28;20474;-69
2024/01/12 07:30:09;;;;;;;15.77;10.80;;;-1.30;79.80;;;-2.39;87.16;99242.47;5053477;28;20480;-68
2024/01/12 07:32:39;;;;;;;17.73;10.57;;;-1.30;79.80;;;-2.22;85.86;99251.91;5050887;28;20554;-69
2024/01/12 07:35:09;;;;;;;15.53;9.87;;;-1.20;79.40;;;-2.43;86.40;99247.13;5055109;28;20568;-72
2024/01/12 07:37:37;;;;;;;14.70;10.90;;;-1.20;79.00;;;-2.39;85.79;99248.59;5053384;28;20961;-71
2024/01/12 07:40:07;;;;;;;13.83;10.07;;;-1.10;78.90;;;-2.45;85.78;99244.56;5036481;28;20483;-71
2024/01/12 07:42:35;;;;;;;16.83;12.17;;;-1.20;78.80;;;-2.48;86.51;99250.06;5046695;28;20466;-76
2024/01/12 07:45:02;;;;;;;13.53;9.93;;;-1.20;78.90;;;-2.38;86.95;99250.28;5086332;28;20456;-80
2024/01/12 07:47:29;;;;;;;13.23;9.47;;;-1.20;79.30;;;-2.39;86.25;99248.59;5065438;28;20467;-73
2024/01/12 07:49:58;;;;;;;13.07;9.33;;;-1.20;79.50;;;-2.33;85.60;99248.22;5040289;28;20469;-72
2024/01/12 07:52:26;;;;;;;11.73;9.43;;;-1.20;79.30;;;-2.30;85.45;99258.59;5061824;28;20483;-72
2024/01/12 07:54:53;;;;;;;11.60;8.20;;;-1.10;78.90;;;-2.28;85.33;99254.03;5051522;28;20463;-72
2024/01/12 07:57:21;;;;;;;13.30;9.70;;;-1.00;78.80;;;-2.07;85.00;99248.22;5045296;28;20466;-73
2024/01/12 07:59:48;;;;;;;12.37;9.70;;;-1.00;78.70;;;-2.11;84.27;99257.34;5043071;28;20503;-70
2024/01/12 08:02:16;;;;;;;15.23;10.00;;;-0.90;77.80;;;-2.02;84.03;99247.91;5049794;28;20446;-72
2024/01/12 08:04:43;;;;;;;12.70;8.93;;;-0.80;77.90;;;-1.91;83.67;99247.19;5047171;28;20462;-73
2024/01/12 08:07:12;;;;;;;12.37;9.13;;;-0.80;77.60;;;-1.84;82.82;99253.78;5055358;28;20543;-73
2024/01/12 08:09:39;;;;;;;11.37;9.10;;;-0.70;77.40;;;-1.95;82.75;99261.59;5057814;28;20453;-74
2024/01/12 08:12:08;;;;;;;17.57;10.70;;;-0.70;77.10;;;-1.92;82.91;99256.94;5061659;28;20545;-74
2024/01/12 08:14:35;;;;;;;10.87;8.50;;;-0.70;77.40;;;-1.72;82.98;99258.22;5051197;28;20457;-73
2024/01/12 08:17:02;;;;;;;12.47;8.70;;;-0.70;77.20;;;-1.74;82.13;99254.84;5044939;28;20451;-73
2024/01/12 08:19:32;;;;;;;12.80;9.70;;;-0.60;77.00;;;-1.75;81.93;99246.97;5034773;28;20494;-72
2024/01/12 08:21:59;;;;;;;12.50;9.50;;;-0.50;76.80;;;-1.51;81.61;99255.03;5051363;28;20538;-72
2024/01/12 08:24:28;;;;;;;13.03;9.87;;;-0.40;77.00;;;-1.94;82.96;99247.41;5058513;28;20799;-73
2024/01/12 08:26:56;;;;;;;13.70;9.50;;;-0.60;76.30;;;-1.67;83.14;99243.78;5047040;28;20463;-72
2024/01/12 08:29:25;;;;;;;10.80;8.90;;;-0.50;77.20;;;-1.57;82.61;99245.69;5056237;28;20435;-73
2024/01/12 08:31:52;;;;;;;13.10;9.00;;;-0.40;77.00;;;-1.40;82.12;99240.16;5046808;28;20484;-73
2024/01/12 08:34:21;;;;;;;12.07;8.77;;;-0.30;77.20;;;-1.43;81.54;99242.09;5050049;28;20447;-73
2024/01/12 08:36:48;;;;;;;15.23;9.90;;;-0.30;76.70;;;-1.47;81.85;99251.19;5041860;28;20474;-73
2024/01/12 08:39:16;;;;;;;12.40;9.40;;;-0.30;76.60;;;-1.44;80.79;99251.00;5046346;28;20507;-72
2024/01/12 08:41:46;;;;;;;12.97;9.60;;;-0.20;76.40;;;-1.29;81.46;99249.03;5038177;28;20490;-73
2024/01/12 08:44:13;;;;;;;11.87;10.10;;;-0.20;76.70;;;-1.37;80.82;99239.94;5046377;28;20945;-72
2024/01/12 08:46:41;;;;;;;13.30;9.80;;;-0.10;76.00;;;-1.96;83.85;99259.91;5045870;28;20452;-71
2024/01/12 08:49:08;;;;;;;15.83;11.03;;;-0.50;76.30;;;-1.91;83.58;99263.06;5048484;28;20459;-73
2024/01/12 08:51:36;;;;;;;15.53;11.10;;;-0.60;76.60;;;-1.59;82.86;99262.69;5043584;28;20599;-73
2024/01/12 08:54:04;;;;;;;14.70;10.17;;;-0.50;77.00;;;-1.61;81.58;99256.59;5039317;28;20465;-73
2024/01/12 08:56:32;;;;;;;22.70;13.77;;;-0.40;76.50;;;-1.46;81.96;99274.09;5035455;28;20460;-74
2024/01/12 08:59:01;;;;;;;12.70;9.00;;;-0.30;76.50;;;-1.47;81.81;99267.09;5054072;28;20455;-73
2024/01/12 09:01:28;;;;;;;15.43;10.77;;;-0.40;76.70;;;-1.35;82.29;99248.63;5049564;28;20458;-73
2024/01/12 09:03:55;;;;;;;26.20;15.30;;;-0.40;77.00;;;-1.04;81.02;99254.41;5042615;28;20450;-73
2024/01/12 09:06:24;;;;;;;20.80;15.20;;;-0.20;76.70;;;-1.86;81.41;99189.44;5046260;28;20465;-74
2024/01/12 09:08:51;;;;;;;24.20;14.63;;;-0.20;76.20;;;-1.63;82.50;99264.69;5040219;28;20589;-72
2024/01/12 09:11:18;;;;;;;15.37;10.60;;;-0.40;76.50;;;-1.47;81.96;99272.41;5038095;28;20484;-71
2024/01/12 09:13:46;;;;;;;21.30;14.27;;;-0.40;76.50;;;-1.52;81.85;99277.19;5062049;28;20458;-73
2024/01/12 09:16:15;;;;;;;18.33;13.43;;;-0.40;76.80;;;-1.33;82.17;99278.53;5061355;28;20462;-72
2024/01/12 09:18:44;;;;;;;15.60;12.33;;;-0.30;77.10;;;-1.31;81.44;99277.47;5055500;28;20449;-73
2024/01/12 09:21:15;;;;;;;15.10;10.93;;;-0.20;76.60;;;-1.62;81.81;99284.06;5043236;28;20885;-72
2024/01/12 09:23:45;;;;;;;17.40;12.70;;;-0.20;76.30;;;-1.52;82.55;99273.66;5042834;28;20487;-72
2024/01/12 09:26:13;;;;;;;21.30;14.10;;;-0.30;76.40;;;-1.68;83.29;99279.22;5045334;28;20517;-72
2024/01/12 09:28:40;;;;;;;17.37;11.90;;;-0.40;76.50;;;-1.73;83.67;99288.34;5058964;28;20460;-73
2024/01/12 09:31:08;;;;;;;16.57;12.07;;;-0.40;76.80;;;-1.78;83.70;99287.78;5039539;28;20479;-72
2024/01/12 09:33:38;;;;;;;20.73;15.63;;;-0.40;76.80;;;-1.64;83.47;99276.25;5049360;28;20458;-73
2024/01/12 09:36:07;;;;;;;16.87;12.63;;;-0.40;77.00;;;-1.54;83.21;99281.75;5049672;28;20229;-82
2024/01/12 09:38:34;;;;;;;15.67;12.13;;;-0.40;77.10;;;-1.42;82.84;99285.34;5053078;28;20470;-78
2024/01/12 09:41:03;;;;;;;14.80;11.23;;;-0.30;77.10;;;-1.28;81.87;99289.69;5055719;28;20467;-82
2024/01/12 09:43:33;;;;;;;19.10;13.07;;;-0.10;76.80;;;-1.35;82.23;99285.75;5066766;28;20908;-82
2024/01/12 09:46:05;;;;;;;15.60;10.07;;;-0.10;76.70;;;-1.23;82.15;99266.34;5055001;28;20460;-84
2024/01/12 09:48:37;;;;;;;19.10;12.17;;;0.00;76.70;;;-1.06;80.92;99273.09;5041762;28;20465;-83
2024/01/12 09:51:06;;;;;;;16.10;10.63;;;0.10;76.60;;;-1.05;80.22;99281.88;5052116;28;20472;-82
2024/01/12 09:53:33;;;;;;;13.70;10.20;;;0.20;76.30;;;-0.97;80.60;99282.19;5059158;28;20454;-84
2024/01/12 09:56:01;;;;;;;12.33;9.07;;;0.10;76.00;;;-0.96;79.73;99286.53;5060152;28;20457;-84
2024/01/12 09:58:28;;;;;;;13.37;8.60;;;0.30;75.80;;;-1.06;79.79;99280.19;5066872;28;20459;-84
2024/01/12 10:00:56;;;;;;;15.27;10.13;;;0.10;75.30;;;-1.08;80.32;99295.38;5057371;28;20450;-83
2024/01/12 10:03:26;;;;;;;13.50;8.50;;;0.10;75.60;;;-1.16;80.81;99295.91;5058691;28;20443;-84
2024/01/12 10:05:55;;;;;;;12.00;9.03;;;0.10;75.60;;;-1.32;81.23;99291.69;5040226;28;20457;-83
2024/01/12 10:08:22;;;;;;;11.83;8.70;;;0.10;75.60;;;-1.29;81.26;99295.91;5064798;28;20451;-83
2024/01/12 10:10:51;;;;;;;12.67;8.37;;;0.00;75.50;;;-1.31;81.04;99285.44;5043540;28;20452;-82
2024/01/12 10:13:18;;;;;;;13.57;8.47;;;0.00;75.70;;;-1.42;81.66;99290.63;5044743;28;20456;-83